Time;durP1;ratioP1;P1;durP2;ratioP2;P2;SDS_P1;SDS_P2;PMS_P1;PMS_P2;Temp;Humidity;BMP_temperature;BMP_pressure;BME280_temperature;BME280_humidity;BME280_pressure;Samples;Min_cycle;Max_cycle;Signal;HPM_P1;HPM_P2
2023/09/05 00:00:13;;;;;;;8.65;4.47;;;;;;;16.33;87.08;95278.84;5045171;28;20057;-84
2023/09/05 00:02:39;;;;;;;8.35;5.10;;;;;;;16.92;86.76;95379.38;5045755;28;20048;-84
2023/09/05 00:05:07;;;;;;;5.18;4.13;;;;;;;16.52;86.28;95327.63;5044543;28;20092;-84
2023/09/05 00:07:36;;;;;;;6.57;4.68;;;;;;;16.70;86.50;95351.84;5061632;28;20040;-84
2023/09/05 00:10:03;;;;;;;8.23;4.20;;;;;;;17.17;86.71;95420.75;5043906;28;20036;-84
2023/09/05 00:12:30;;;;;;;8.70;4.82;;;;;;;16.57;86.90;95318.66;5062179;28;20044;-83
2023/09/05 00:14:55;;;;;;;5.88;4.28;;;;;;;16.83;86.25;95365.16;5044664;28;20029;-83
2023/09/05 00:17:21;;;;;;;6.50;4.30;;;;;;;16.21;85.96;95274.09;5045114;28;20067;-83
2023/09/05 00:19:47;;;;;;;8.00;3.75;;;;;;;15.99;86.59;95222.50;5062319;28;20076;-83
2023/09/05 00:22:15;;;;;;;7.30;3.92;;;;;;;16.85;86.62;95349.56;5062902;28;20067;-83
2023/09/05 00:24:41;;;;;;;6.45;3.83;;;;;;;16.84;86.19;95345.31;5045433;28;20096;-83
2023/09/05 00:27:09;;;;;;;7.00;4.28;;;;;;;17.19;86.50;95399.81;5062600;28;20068;-83
2023/09/05 00:29:35;;;;;;;5.25;3.83;;;;;;;16.82;86.32;95339.47;5044697;28;20028;-83
2023/09/05 00:32:02;;;;;;;7.13;3.72;;;;;;;16.88;85.75;95373.03;5043959;28;20033;-83
2023/09/05 00:34:29;;;;;;;8.30;4.40;;;;;;;17.01;86.61;95384.00;5041355;28;20102;-84
2023/09/05 00:36:54;;;;;;;5.15;3.97;;;;;;;16.84;87.07;95349.88;5033775;28;20138;-84
2023/09/05 00:39:20;;;;;;;9.63;4.10;;;;;;;17.07;86.89;95380.06;5051624;28;20468;-84
2023/09/05 00:41:46;;;;;;;5.68;3.70;;;;;;;16.62;86.91;95310.56;5033998;28;20025;-85
2023/09/05 00:44:13;;;;;;;4.40;3.78;;;;;;;16.84;85.49;95347.19;5052048;28;20032;-85
2023/09/05 00:46:41;;;;;;;5.05;3.58;;;;;;;17.07;85.27;95386.22;5055142;28;20442;-85
2023/09/05 00:49:10;;;;;;;6.10;3.30;;;;;;;16.58;85.49;95304.19;5053815;28;20436;-85
2023/09/05 00:51:37;;;;;;;7.65;3.70;;;;;;;17.07;85.40;95382.75;5053225;28;20028;-86
2023/09/05 00:54:05;;;;;;;5.95;3.33;;;;;;;17.07;85.42;95386.22;5036852;28;20103;-85
2023/09/05 00:56:32;;;;;;;3.90;3.10;;;;;;;16.63;85.39;95340.78;5054478;28;20082;-86
2023/09/05 00:58:59;;;;;;;4.32;3.42;;;;;;;16.29;85.65;95274.44;5054762;28;20104;-85
2023/09/05 01:01:24;;;;;;;4.35;3.38;;;;;;;16.96;86.14;95372.28;5035777;28;20124;-85
2023/09/05 01:03:51;;;;;;;4.82;3.70;;;;;;;16.79;86.26;95342.75;5055145;28;20073;-86
2023/09/05 01:06:46;;;;;;;4.03;3.20;;;;;;;17.07;86.85;95388.09;5036649;28;20079;-85
2023/09/05 01:09:57;;;;;;;5.60;3.28;;;;;;;17.15;87.19;95387.34;4967234;28;20039;-85
2023/09/05 01:12:23;;;;;;;8.68;3.03;;;;;;;17.00;86.94;95355.63;5028392;28;20432;-85
2023/09/05 01:14:48;;;;;;;6.03;3.33;;;;;;;17.19;86.94;95388.31;5036804;28;20033;-85
2023/09/05 01:17:14;;;;;;;4.60;2.88;;;;;;;16.78;86.11;95345.75;5036258;28;20040;-85
2023/09/05 01:19:41;;;;;;;3.60;2.92;;;;;;;16.63;85.36;95336.19;5036595;28;20025;-85
2023/09/05 01:22:09;;;;;;;4.50;3.03;;;;;;;16.98;85.80;95396.91;5054140;28;20032;-85
2023/09/05 01:24:35;;;;;;;10.75;3.53;;;;;;;16.92;86.03;95376.69;5036022;28;20032;-85
2023/09/05 01:27:03;;;;;;;3.03;2.47;;;;;;;16.99;87.10;95386.97;5036174;28;20033;-85
2023/09/05 01:29:35;;;;;;;4.18;3.60;;;;;;;16.90;86.83;95373.53;5035843;28;20475;-85
2023/09/05 01:32:05;;;;;;;4.13;3.20;;;;;;;17.11;87.27;95397.09;5036509;28;20025;-85
2023/09/05 01:34:31;;;;;;;6.53;3.30;;;;;;;17.15;87.43;95393.50;5052436;28;20063;-85
2023/09/05 01:36:57;;;;;;;4.60;3.50;;;;;;;17.16;87.44;95389.72;5053969;28;20111;-85
2023/09/05 01:39:23;;;;;;;5.35;3.63;;;;;;;17.10;87.54;95358.00;5035968;28;20286;-85
2023/09/05 01:41:51;;;;;;;8.50;4.30;;;;;;;17.08;87.39;95354.84;5035767;28;20072;-86
2023/09/05 01:44:16;;;;;;;6.63;3.50;;;;;;;16.63;85.86;95303.31;5054814;28;20515;-83
2023/09/05 01:46:42;;;;;;;5.00;3.55;;;;;;;16.81;86.21;95323.69;5036723;28;20036;-83
2023/09/05 01:49:07;;;;;;;6.03;3.50;;;;;;;16.98;86.17;95367.44;5055339;28;20084;-83
2023/09/05 01:51:32;;;;;;;5.38;3.40;;;;;;;17.06;86.18;95381.97;5055987;28;20095;-83
2023/09/05 01:53:58;;;;;;;7.55;3.78;;;;;;;17.01;87.10;95360.66;5056397;28;20151;-83
2023/09/05 01:56:23;;;;;;;6.00;3.42;;;;;;;17.11;86.75;95368.41;5038992;28;20406;-83
2023/09/05 01:58:49;;;;;;;6.75;3.50;;;;;;;16.81;86.90;95316.44;5047302;28;20047;-83
2023/09/05 02:01:14;;;;;;;9.38;4.05;;;;;;;16.48;86.58;95277.66;5064893;28;20037;-83
2023/09/05 02:03:40;;;;;;;3.88;3.33;;;;;;;16.72;86.44;95322.84;5046025;28;20033;-83
2023/09/05 02:06:05;;;;;;;5.75;3.42;;;;;;;16.95;85.89;95375.28;5056053;28;20505;-83
2023/09/05 02:08:33;;;;;;;6.32;2.90;;;;;;;16.79;86.12;95345.41;5055518;28;20033;-83
2023/09/05 02:10:59;;;;;;;6.38;3.63;;;;;;;16.69;86.40;95340.34;5037229;28;20066;-83
2023/09/05 02:13:24;;;;;;;9.60;3.80;;;;;;;16.75;87.58;95323.03;5054455;28;20029;-83
2023/09/05 02:15:49;;;;;;;9.48;3.97;;;;;;;16.40;87.05;95276.53;5054569;28;20033;-83
2023/09/05 02:18:15;;;;;;;6.20;3.13;;;;;;;16.69;87.08;95343.03;5036233;28;20138;-83
2023/09/05 02:20:40;;;;;;;4.13;3.20;;;;;;;16.66;86.58;95348.97;5036919;28;20502;-83
2023/09/05 02:23:07;;;;;;;5.40;3.92;;;;;;;16.38;87.11;95300.16;5036504;28;20096;-82
2023/09/05 02:25:32;;;;;;;4.78;3.30;;;;;;;16.45;87.30;95311.22;5036196;28;20029;-82
2023/09/05 02:27:58;;;;;;;10.35;3.80;;;;;;;16.80;86.80;95378.34;5036340;28;20372;-83
2023/09/05 02:30:25;;;;;;;6.47;4.00;;;;;;;16.64;86.94;95353.06;5035857;28;20039;-83
2023/09/05 02:32:54;;;;;;;5.65;3.80;;;;;;;16.94;86.69;95401.28;5054233;28;20033;-83
2023/09/05 02:35:25;;;;;;;4.10;3.30;;;;;;;16.76;86.50;95380.88;5035480;28;20049;-83
2023/09/05 02:37:55;;;;;;;8.25;2.97;;;;;;;16.75;86.57;95367.78;5053957;28;20543;-83
2023/09/05 02:40:21;;;;;;;6.07;3.20;;;;;;;16.59;86.43;95338.69;5035720;28;20036;-83
2023/09/05 02:42:47;;;;;;;7.28;3.67;;;;;;;16.73;86.96;95367.28;5052381;28;20029;-83
2023/09/05 02:45:13;;;;;;;4.78;3.30;;;;;;;16.82;86.42;95376.97;5035877;28;20032;-83
2023/09/05 02:47:40;;;;;;;10.55;3.28;;;;;;;16.58;86.59;95366.56;5053379;28;20101;-83
2023/09/05 02:50:06;;;;;;;6.07;3.45;;;;;;;16.32;87.40;95327.34;5035804;28;20044;-83
2023/09/05 02:52:33;;;;;;;3.85;3.28;;;;;;;16.55;86.56;95358.38;5034992;28;20060;-83
2023/09/05 02:54:59;;;;;;;5.82;3.58;;;;;;;16.69;86.77;95375.16;5051521;28;20145;-85
2023/09/05 02:57:24;;;;;;;8.43;3.05;;;;;;;16.76;86.35;95401.50;5052697;28;20501;-85
2023/09/05 02:59:54;;;;;;;5.97;3.38;;;;;;;16.53;85.93;95363.22;5051955;28;20028;-85
2023/09/05 03:02:22;;;;;;;6.40;3.28;;;;;;;16.57;85.90;95390.94;5050954;28;20459;-87
2023/09/05 03:04:51;;;;;;;4.18;3.78;;;;;;;16.71;87.15;95399.72;5051118;28;20032;-85
2023/09/05 03:07:17;;;;;;;6.40;3.70;;;;;;;16.34;86.57;95347.34;5052374;28;20029;-86
2023/09/05 03:09:43;;;;;;;5.25;3.83;;;;;;;16.72;86.71;95406.66;5034175;28;20029;-85
2023/09/05 03:12:08;;;;;;;4.53;3.72;;;;;;;16.66;86.24;95401.75;5034439;28;20472;-85
2023/09/05 03:14:33;;;;;;;6.05;4.25;;;;;;;16.65;86.44;95390.25;5052545;28;20385;-86
2023/09/05 03:16:59;;;;;;;4.70;3.67;;;;;;;16.17;85.98;95325.84;5052443;28;20098;-86
2023/09/05 03:19:25;;;;;;;5.22;4.28;;;;;;;16.17;85.71;95341.91;5053644;28;20033;-85
2023/09/05 03:21:50;;;;;;;8.70;4.45;;;;;;;16.53;86.08;95398.03;5052725;28;20499;-85
2023/09/05 03:24:17;;;;;;;7.28;4.75;;;;;;;16.34;85.35;95376.78;5034424;28;20078;-86
2023/09/05 03:26:45;;;;;;;7.25;5.18;;;;;;;16.38;85.34;95380.44;5034350;28;20128;-86
2023/09/05 03:29:10;;;;;;;6.18;5.57;;;;;;;16.50;85.86;95417.38;5050892;28;20037;-86
2023/09/05 03:31:36;;;;;;;9.57;5.78;;;;;;;16.31;85.88;95396.16;5051734;28;20032;-86
2023/09/05 03:34:02;;;;;;;6.70;5.30;;;;;;;16.11;85.76;95361.81;5033870;28;20033;-86
2023/09/05 03:36:27;;;;;;;14.13;5.72;;;;;;;15.62;85.52;95288.63;5033700;28;20493;-86
2023/09/05 03:38:53;;;;;;;6.95;5.30;;;;;;;16.35;85.46;95407.81;5052629;28;20060;-86
2023/09/05 03:41:18;;;;;;;8.38;6.30;;;;;;;15.85;86.35;95368.84;5052248;28;20076;-86
2023/09/05 03:43:43;;;;;;;7.93;6.20;;;;;;;15.80;86.53;95349.16;5034748;28;20041;-86
2023/09/05 03:46:09;;;;;;;8.52;6.47;;;;;;;15.83;86.54;95361.94;5052638;28;20029;-86
2023/09/05 03:48:34;;;;;;;10.90;7.63;;;;;;;15.91;86.23;95391.72;5034127;28;20123;-86
2023/09/05 03:51:00;;;;;;;10.55;8.82;;;;;;;16.12;86.46;95427.63;5050641;28;20056;-86
2023/09/05 03:53:25;;;;;;;13.48;10.70;;;;;;;15.93;86.29;95413.63;5052677;28;20113;-86
2023/09/05 03:55:51;;;;;;;13.82;11.75;;;;;;;15.77;86.67;95389.09;5033798;28;20040;-86
2023/09/05 03:58:16;;;;;;;17.42;13.13;;;;;;;15.99;85.91;95402.50;5052488;28;20078;-86
2023/09/05 04:00:42;;;;;;;20.20;14.45;;;;;;;16.02;85.43;95401.09;5052210;28;20385;-86
2023/09/05 04:03:10;;;;;;;20.33;13.63;;;;;;;15.60;85.47;95335.44;5052047;28;20033;-86
2023/09/05 04:05:37;;;;;;;17.50;13.95;;;;;;;15.53;85.33;95341.19;5033792;28;20021;-84
2023/09/05 04:08:06;;;;;;;17.45;14.25;;;;;;;16.07;85.06;95409.00;5052236;28;20095;-84
2023/09/05 04:10:31;;;;;;;28.88;14.05;;;;;;;16.03;84.87;95414.16;5033532;28;20049;-85
2023/09/05 04:12:56;;;;;;;21.75;13.73;;;;;;;15.68;84.91;95353.44;5052046;28;20041;-84
2023/09/05 04:15:23;;;;;;;19.85;13.55;;;;;;;16.05;84.38;95409.31;5052606;28;20060;-85
2023/09/05 04:17:50;;;;;;;21.60;13.73;;;;;;;16.11;84.96;95418.00;5033842;28;20045;-84
2023/09/05 04:20:16;;;;;;;19.40;14.88;;;;;;;15.96;84.69;95402.28;5036780;28;20060;-85
2023/09/05 04:22:42;;;;;;;16.70;13.77;;;;;;;16.05;85.17;95429.91;5038010;28;20108;-86
2023/09/05 04:25:08;;;;;;;23.48;14.82;;;;;;;15.86;85.02;95397.97;5038206;28;20112;-86
2023/09/05 04:27:33;;;;;;;18.98;14.95;;;;;;;15.50;84.40;95323.06;5037959;28;20096;-85
2023/09/05 04:29:59;;;;;;;20.33;13.50;;;;;;;16.12;83.94;95424.94;5037525;28;20128;-85
2023/09/05 04:32:28;;;;;;;19.95;14.23;;;;;;;16.12;83.63;95424.94;5037788;28;20033;-86
2023/09/05 04:34:56;;;;;;;20.48;14.25;;;;;;;16.26;83.48;95423.00;5037412;28;20057;-86
2023/09/05 04:37:21;;;;;;;19.60;13.85;;;;;;;16.18;83.06;95421.84;5037136;28;20041;-86
2023/09/05 04:39:46;;;;;;;20.15;14.20;;;;;;;16.16;83.33;95391.16;5037516;28;20037;-85
2023/09/05 04:42:12;;;;;;;20.60;13.40;;;;;;;16.40;83.25;95431.00;5037044;28;20067;-86
2023/09/05 04:44:37;;;;;;;27.27;13.63;;;;;;;16.24;83.57;95411.03;5037046;28;20636;-86
2023/09/05 04:47:20;;;;;;;17.88;13.95;;;;;;;16.52;84.03;95429.34;5055153;28;20137;-86
2023/09/05 04:49:47;;;;;;;19.60;13.90;;;;;;;16.05;84.67;95387.13;5036432;28;20045;-86
2023/09/05 04:52:14;;;;;;;20.95;14.55;;;;;;;16.33;85.02;95414.56;5036003;28;20277;-86
2023/09/05 04:54:40;;;;;;;17.65;14.63;;;;;;;16.51;84.07;95427.78;5032015;28;20041;-85
2023/09/05 04:57:05;;;;;;;19.80;13.73;;;;;;;16.55;83.12;95427.97;5054058;28;20041;-85
2023/09/05 04:59:31;;;;;;;24.13;15.35;;;;;;;16.23;83.16;95385.38;5033385;28;20122;-85
2023/09/05 05:01:56;;;;;;;17.98;13.70;;;;;;;16.13;83.34;95376.47;5053012;28;20033;-85
2023/09/05 05:04:22;;;;;;;26.80;15.40;;;;;;;16.44;83.04;95413.22;5045379;28;20222;-85
2023/09/05 05:06:47;;;;;;;23.88;15.20;;;;;;;15.91;83.16;95324.84;5035949;28;20025;-84
2023/09/05 05:09:13;;;;;;;25.35;15.93;;;;;;;16.06;83.20;95343.22;5030494;28;20121;-86
2023/09/05 05:11:39;;;;;;;26.40;14.35;;;;;;;16.48;82.27;95398.91;5029823;28;20037;-86
2023/09/05 05:14:04;;;;;;;20.70;15.43;;;;;;;16.48;84.27;95411.50;5032400;28;20429;-86
2023/09/05 05:16:30;;;;;;;20.67;16.00;;;;;;;16.33;83.86;95380.56;5058057;28;20038;-85
2023/09/05 05:18:56;;;;;;;18.90;13.75;;;;;;;16.78;82.80;95431.47;5030687;28;20060;-86
2023/09/05 05:21:21;;;;;;;21.50;14.98;;;;;;;16.74;81.71;95427.78;5026520;28;20119;-86
2023/09/05 05:23:47;;;;;;;28.50;17.75;;;;;;;16.53;81.33;95373.94;5034562;28;20119;-86
2023/09/05 05:26:12;;;;;;;23.52;15.55;;;;;;;16.45;81.46;95351.38;5043780;28;20041;-85
2023/09/05 05:28:38;;;;;;;25.58;14.82;;;;;;;16.54;81.04;95356.78;5028676;28;20029;-85
2023/09/05 05:31:03;;;;;;;21.67;14.65;;;;;;;17.00;80.49;95419.91;5047502;28;20426;-85
2023/09/05 05:33:28;;;;;;;20.20;14.65;;;;;;;17.31;80.52;95450.16;5042895;28;20025;-84
2023/09/05 05:35:58;;;;;;;25.35;15.20;;;;;;;16.46;81.10;95306.66;5010899;28;20044;-90
2023/09/05 05:38:23;;;;;;;21.73;15.05;;;;;;;16.92;80.65;95384.75;5021611;28;20024;-85
2023/09/05 05:40:48;;;;;;;19.45;13.93;;;;;;;17.09;79.10;95407.34;5021577;28;20423;-85
2023/09/05 05:43:14;;;;;;;25.42;15.40;;;;;;;17.32;79.60;95430.28;5024869;28;20098;-86
2023/09/05 05:45:39;;;;;;;26.40;15.10;;;;;;;16.72;78.96;95329.00;5041540;28;20017;-86
2023/09/05 05:48:07;;;;;;;17.00;13.52;;;;;;;17.35;79.28;95410.91;5017127;28;20074;-87
2023/09/05 05:50:33;;;;;;;20.88;13.45;;;;;;;17.48;77.29;95425.28;5039702;28;20404;-87
2023/09/05 05:52:58;;;;;;;23.02;14.90;;;;;;;16.96;77.50;95358.09;5017710;28;20033;-87
2023/09/05 05:55:24;;;;;;;28.02;15.65;;;;;;;17.59;78.24;95459.59;5019313;28;20571;-85
2023/09/05 05:57:49;;;;;;;22.02;14.32;;;;;;;17.08;78.29;95357.53;5023344;28;20500;-85
2023/09/05 06:00:15;;;;;;;22.00;14.02;;;;;;;16.91;77.57;95331.47;5020520;28;20508;-85
2023/09/05 06:02:40;;;;;;;24.48;15.27;;;;;;;16.87;77.14;95317.09;5020678;28;20036;-86
2023/09/05 06:05:07;;;;;;;29.92;15.15;;;;;;;17.29;77.23;95388.03;5019561;28;20056;-87
2023/09/05 06:07:33;;;;;;;24.92;15.38;;;;;;;17.45;77.86;95423.25;5033656;28;20077;-87
2023/09/05 06:09:58;;;;;;;27.85;15.93;;;;;;;17.59;77.72;95410.50;5037585;28;20052;-87
2023/09/05 06:12:24;;;;;;;20.63;15.05;;;;;;;17.53;76.76;95409.09;5017059;28;20048;-86
2023/09/05 06:14:49;;;;;;;23.45;14.27;;;;;;;17.04;76.07;95343.16;5017488;28;20039;-86
2023/09/05 06:17:27;;;;;;;24.40;15.05;;;;;;;16.27;76.15;95194.44;5045215;28;20146;-88
2023/09/05 06:19:52;;;;;;;22.30;14.85;;;;;;;16.43;75.26;95232.31;5052759;28;20033;-88
2023/09/05 06:22:18;;;;;;;22.65;14.18;;;;;;;16.41;75.12;95275.44;5019739;28;20684;-87
2023/09/05 06:24:43;;;;;;;22.13;13.70;;;;;;;17.68;76.25;95454.28;5035398;28;20032;-85
2023/09/05 06:27:10;;;;;;;18.25;14.15;;;;;;;16.43;75.61;95229.63;5015455;28;20514;-87
2023/09/05 06:29:36;;;;;;;25.30;15.30;;;;;;;17.86;76.48;95447.03;5018704;28;20044;-86
2023/09/05 06:32:01;;;;;;;22.40;15.85;;;;;;;17.15;76.56;95357.88;5018942;28;20251;-87
2023/09/05 06:34:27;;;;;;;18.17;13.63;;;;;;;17.22;76.07;95376.97;5025186;28;20033;-88
2023/09/05 06:36:53;;;;;;;19.35;13.90;;;;;;;17.60;76.79;95461.16;5013760;28;20111;-87
2023/09/05 06:39:19;;;;;;;16.02;13.60;;;;;;;17.37;77.64;95414.09;5059200;22;20060;-76
2023/09/05 06:41:44;;;;;;;24.00;14.23;;;;;;;17.53;77.93;95447.41;5005865;28;20037;-77
2023/09/05 06:44:10;;;;;;;18.75;14.50;;;;;;;17.58;78.60;95449.94;5010843;28;20087;-75
2023/09/05 06:46:36;;;;;;;34.00;15.65;;;;;;;17.77;78.89;95478.44;4986118;28;20126;-77
2023/09/05 06:49:02;;;;;;;19.02;14.05;;;;;;;17.65;77.37;95470.97;4995107;28;20498;-76
2023/09/05 06:51:30;;;;;;;17.48;13.50;;;;;;;17.43;76.90;95428.13;4988217;28;20033;-77
2023/09/05 06:53:56;;;;;;;20.42;14.73;;;;;;;17.60;76.81;95455.00;5010370;28;20475;-76
2023/09/05 06:56:22;;;;;;;23.25;12.93;;;;;;;17.30;76.69;95389.63;4986979;28;20104;-76
2023/09/05 06:58:50;;;;;;;20.45;13.18;;;;;;;17.60;75.64;95441.59;4997315;28;20037;-77
2023/09/05 07:01:15;;;;;;;23.45;12.80;;;;;;;17.81;76.28;95461.41;4988996;28;20033;-77
2023/09/05 07:03:41;;;;;;;17.05;11.93;;;;;;;17.66;76.84;95437.69;4987509;28;20041;-75
2023/09/05 07:06:06;;;;;;;16.65;12.13;;;;;;;17.61;75.35;95454.75;4991927;28;20168;-75
2023/09/05 07:08:32;;;;;;;21.33;11.63;;;;;;;17.66;75.30;95486.78;4990277;28;20125;-78
2023/09/05 07:10:57;;;;;;;14.60;11.02;;;;;;;17.67;76.00;95482.19;4991216;28;20029;-77
2023/09/05 07:13:24;;;;;;;17.17;11.98;;;;;;;17.87;75.80;95505.75;4988082;28;20796;-77
2023/09/05 07:15:51;;;;;;;18.05;12.23;;;;;;;17.71;75.89;95448.28;5009399;28;20030;-76
2023/09/05 07:18:16;;;;;;;20.52;12.07;;;;;;;18.12;76.93;95506.94;4994761;28;20040;-76
2023/09/05 07:20:42;;;;;;;15.50;11.40;;;;;;;18.16;75.53;95491.00;4977169;28;20037;-76
2023/09/05 07:23:07;;;;;;;22.20;11.60;;;;;;;18.19;74.64;95499.22;4974558;28;20382;-78
2023/09/05 07:25:37;;;;;;;22.02;12.13;;;;;;;18.28;74.79;95508.06;4986633;28;20072;-76
2023/09/05 07:28:04;;;;;;;22.73;11.32;;;;;;;18.21;74.57;95478.22;4982246;28;20049;-77
2023/09/05 07:30:31;;;;;;;15.10;11.38;;;;;;;18.32;74.53;95511.69;5005192;28;20112;-76
2023/09/05 07:32:57;;;;;;;13.80;10.68;;;;;;;18.11;73.78;95471.25;4990435;28;20238;-76
2023/09/05 07:35:22;;;;;;;15.20;10.10;;;;;;;18.35;74.41;95504.91;5003438;28;20018;-76
2023/09/05 07:37:48;;;;;;;18.33;11.07;;;;;;;18.27;73.82;95501.13;5004241;28;20690;-75
2023/09/05 07:40:14;;;;;;;20.92;10.23;;;;;;;17.86;73.50;95455.88;4981486;28;20068;-77
2023/09/05 07:42:41;;;;;;;23.08;10.68;;;;;;;18.27;73.00;95514.53;5007115;28;20135;-76
2023/09/05 07:45:08;;;;;;;16.45;10.65;;;;;;;18.36;73.94;95538.72;4992905;28;20025;-77
2023/09/05 07:47:34;;;;;;;14.57;10.52;;;;;;;18.33;73.58;95542.03;5002799;28;20132;-78
2023/09/05 07:49:59;;;;;;;15.90;9.43;;;;;;;17.77;72.94;95473.88;4989732;28;20424;-76
2023/09/05 07:52:25;;;;;;;18.60;11.70;;;;;;;18.18;73.27;95531.72;5007298;28;20049;-77
2023/09/05 07:54:50;;;;;;;19.33;11.73;;;;;;;18.05;73.88;95538.81;4996177;28;20392;-77
2023/09/05 07:57:17;;;;;;;24.75;11.80;;;;;;;17.97;74.20;95531.53;4988826;28;20545;-77
2023/09/05 07:59:43;;;;;;;24.13;11.88;;;;;;;18.02;74.74;95526.00;5006439;28;20033;-77
2023/09/05 08:02:10;;;;;;;18.25;11.63;;;;;;;17.97;74.46;95523.47;5007052;28;20042;-78
2023/09/05 08:04:38;;;;;;;16.23;11.48;;;;;;;18.07;74.35;95540.09;5007455;28;20087;-77
2023/09/05 08:07:06;;;;;;;19.75;10.60;;;;;;;18.09;74.75;95537.06;4976876;28;20443;-77
2023/09/05 08:09:32;;;;;;;19.88;10.30;;;;;;;18.23;74.83;95532.41;5008232;28;20809;-77
2023/09/05 08:11:58;;;;;;;21.17;11.32;;;;;;;18.18;74.97;95504.88;4985662;28;20037;-77
2023/09/05 08:14:23;;;;;;;21.73;11.25;;;;;;;18.41;75.03;95503.66;5005198;28;20061;-77
2023/09/05 08:16:49;;;;;;;15.13;9.98;;;;;;;18.32;73.08;95495.59;4987192;28;20424;-77
2023/09/05 08:19:14;;;;;;;13.52;10.63;;;;;;;18.57;72.73;95514.75;4992242;28;20033;-77
2023/09/05 08:21:40;;;;;;;15.80;9.85;;;;;;;18.74;71.43;95526.31;5007233;28;20124;-77
2023/09/05 08:24:05;;;;;;;18.23;10.43;;;;;;;18.84;71.58;95514.47;4986499;28;20431;-77
2023/09/05 08:26:33;;;;;;;16.45;10.27;;;;;;;18.93;72.25;95522.50;4983019;28;20046;-77
2023/09/05 08:28:59;;;;;;;17.42;10.23;;;;;;;19.16;71.39;95507.75;4977664;28;20191;-77
2023/09/05 08:31:24;;;;;;;18.52;10.27;;;;;;;19.37;71.61;95529.41;4976895;28;20318;-78
2023/09/05 08:33:50;;;;;;;13.15;9.48;;;;;;;19.61;71.42;95518.91;4976296;28;20132;-77
2023/09/05 08:36:15;;;;;;;22.83;10.10;;;;;;;19.59;69.46;95529.22;4981415;28;20228;-78
2023/09/05 08:38:41;;;;;;;11.40;9.15;;;;;;;19.58;68.29;95501.50;4993108;28;20469;-78
2023/09/05 08:41:10;;;;;;;11.07;8.55;;;;;;;19.83;67.75;95532.13;4980812;28;20030;-77
2023/09/05 08:43:35;;;;;;;14.27;8.63;;;;;;;19.83;67.26;95513.28;4978361;28;20580;-78
2023/09/05 08:46:03;;;;;;;13.85;8.40;;;;;;;19.79;67.83;95512.34;4988040;28;20025;-77
2023/09/05 08:48:29;;;;;;;13.32;8.45;;;;;;;19.72;66.88;95489.75;4981280;28;20040;-78
2023/09/05 08:50:57;;;;;;;13.35;9.05;;;;;;;19.87;66.11;95510.72;5000869;28;20029;-78
2023/09/05 08:53:30;;;;;;;11.32;8.13;;;;;;;19.84;65.06;95527.50;4981409;28;20472;-79
2023/09/05 08:55:57;;;;;;;13.98;8.27;;;;;;;20.03;65.48;95544.06;4982658;28;20543;-78
2023/09/05 08:58:25;;;;;;;15.23;8.02;;;;;;;20.14;64.59;95536.41;5001715;28;20193;-78
2023/09/05 09:00:51;;;;;;;18.40;8.38;;;;;;;20.20;63.79;95532.41;4985314;28;20033;-77
2023/09/05 09:03:17;;;;;;;13.48;8.07;;;;;;;20.40;62.82;95540.56;4973159;28;20417;-77
2023/09/05 09:05:46;;;;;;;10.60;6.78;;;;;;;20.38;63.12;95529.31;4991885;28;21053;-77
2023/09/05 09:08:12;;;;;;;10.95;7.35;;;;;;;20.64;62.40;95541.81;4990675;28;20033;-78
2023/09/05 09:10:38;;;;;;;13.45;7.20;;;;;;;20.47;61.22;95515.00;4949540;28;20133;-77
2023/09/05 09:13:15;;;;;;;13.85;7.10;;;;;;;20.56;60.58;95521.13;4971584;28;20053;-78
2023/09/05 09:15:43;;;;;;;13.60;7.07;;;;;;;20.76;60.99;95549.97;4974521;28;20061;-78
2023/09/05 09:18:20;;;;;;;13.13;5.80;;;;;;;20.72;60.26;95539.06;4989212;28;20523;-78
2023/09/05 09:20:46;;;;;;;9.68;6.00;;;;;;;20.58;60.47;95522.38;4972822;28;20049;-78
2023/09/05 09:23:13;;;;;;;9.98;6.13;;;;;;;20.53;59.98;95525.25;4969137;28;20045;-79
2023/09/05 09:25:49;;;;;;;11.00;6.13;;;;;;;20.32;59.13;95489.41;4984121;28;20037;-77
2023/09/05 09:28:26;;;;;;;18.52;6.00;;;;;;;20.52;59.27;95534.44;5006039;28;20041;-79
2023/09/05 09:30:57;;;;;;;12.38;6.07;;;;;;;20.42;59.34;95526.75;4992525;28;20044;-80
2023/09/05 09:33:23;;;;;;;;;;;;;;;20.49;59.39;95532.41;5010313;28;20531;-78
2023/09/05 09:36:05;;;;;;;11.27;6.15;;;;;;;20.53;57.64;95538.72;4998927;28;19925;-78
2023/09/05 09:38:31;;;;;;;23.83;7.30;;;;;;;20.49;58.33;95520.84;5003876;28;20305;-78
2023/09/05 09:41:01;;;;;;;17.45;6.15;;;;;;;20.62;58.16;95522.50;4994845;28;20088;-77
2023/09/05 09:43:30;;;;;;;16.77;5.95;;;;;;;20.54;57.79;95512.56;4987826;28;20136;-76
2023/09/05 09:46:00;;;;;;;10.18;5.60;;;;;;;20.61;57.06;95521.69;5008143;28;20033;-77
2023/09/05 09:48:28;;;;;;;10.57;5.22;;;;;;;20.76;57.04;95523.81;4982094;28;20279;-76
2023/09/05 09:51:00;;;;;;;13.73;5.75;;;;;;;20.83;57.33;95517.88;4986290;28;20124;-76
2023/09/05 09:53:37;;;;;;;12.60;5.85;;;;;;;20.83;57.04;95509.78;5001544;28;20130;-77
2023/09/05 09:56:11;;;;;;;11.40;6.50;;;;;;;20.96;56.84;95489.09;5004613;28;20045;-76
2023/09/05 09:58:40;;;;;;;7.07;4.70;;;;;;;21.49;53.92;95490.94;5000465;28;20049;-76
2023/09/05 10:01:09;;;;;;;10.48;4.80;;;;;;;22.17;52.33;95504.72;4983791;28;20436;-76
2023/09/05 10:03:37;;;;;;;19.33;5.20;;;;;;;23.00;51.34;95509.53;4985637;28;20081;-77
2023/09/05 10:06:04;;;;;;;9.50;4.40;;;;;;;23.71;47.39;95495.97;4984070;28;20021;-77
2023/09/05 10:08:32;;;;;;;13.15;4.03;;;;;;;24.40;45.06;95512.72;5005806;28;20030;-76
2023/09/05 10:10:58;;;;;;;10.95;3.80;;;;;;;24.72;44.32;95494.44;4987432;28;20136;-76
2023/09/05 10:13:27;;;;;;;10.25;3.88;;;;;;;25.26;43.34;95499.78;4989916;28;20049;-76
2023/09/05 10:15:56;;;;;;;8.82;4.13;;;;;;;25.79;41.40;95506.22;5010438;28;20034;-77
2023/09/05 10:18:23;;;;;;;10.95;3.60;;;;;;;25.99;41.23;95520.53;4994805;28;20119;-77
2023/09/05 10:20:50;;;;;;;4.20;3.40;;;;;;;26.54;40.30;95501.97;5004122;28;20132;-76
2023/09/05 10:23:18;;;;;;;5.50;3.25;;;;;;;26.58;39.38;95478.31;4995839;28;20037;-77
2023/09/05 10:25:45;;;;;;;6.32;3.83;;;;;;;26.93;38.41;95469.88;4997839;28;20354;-76
2023/09/05 10:28:10;;;;;;;6.20;3.42;;;;;;;27.34;37.71;95493.28;4996815;28;20043;-76
2023/09/05 10:30:46;;;;;;;6.75;4.05;;;;;;;27.41;38.00;95476.22;5015504;28;20037;-77
2023/09/05 10:33:13;;;;;;;9.32;3.85;;;;;;;27.79;38.20;95494.91;5008845;28;20042;-76
2023/09/05 10:35:48;;;;;;;8.75;4.13;;;;;;;27.54;37.87;95477.56;5013842;28;20049;-75
2023/09/05 10:38:15;;;;;;;7.97;3.22;;;;;;;28.22;36.69;95503.47;4994350;28;20042;-76
2023/09/05 10:40:41;;;;;;;10.10;3.97;;;;;;;28.27;37.40;95519.47;5011817;28;20030;-76
2023/09/05 10:43:09;;;;;;;7.53;4.15;;;;;;;28.03;36.22;95499.78;5001868;28;20076;-76
2023/09/05 10:45:36;;;;;;;8.93;3.40;;;;;;;27.93;37.25;95516.03;5003327;28;20065;-77
2023/09/05 10:48:09;;;;;;;11.23;3.53;;;;;;;27.91;36.94;95496.56;5011732;28;20088;-76
2023/09/05 10:51:24;;;;;;;14.85;4.60;;;;;;;28.08;36.48;95506.81;4995960;28;20135;-77
2023/09/05 10:53:49;;;;;;;7.60;4.82;;;;;;;28.14;36.04;95502.59;5010809;28;20052;-75
2023/09/05 10:56:39;;;;;;;7.22;4.50;;;;;;;28.39;36.82;95522.66;4995080;28;20041;-77
2023/09/05 10:59:07;;;;;;;9.75;3.60;;;;;;;28.02;37.17;95494.72;4999127;28;20053;-77
2023/09/05 11:01:33;;;;;;;7.30;3.75;;;;;;;28.59;36.59;95497.88;5017311;28;20041;-76
2023/09/05 11:04:03;;;;;;;7.32;3.35;;;;;;;28.27;36.04;95509.34;5003703;28;20044;-78
2023/09/05 11:06:32;;;;;;;10.38;3.78;;;;;;;28.06;36.46;95484.63;4996062;28;20107;-76
2023/09/05 11:08:59;;;;;;;6.72;3.60;;;;;;;28.19;36.06;95523.31;4994893;28;20044;-77
2023/09/05 11:11:24;;;;;;;9.05;4.10;;;;;;;28.49;35.28;95498.56;5020464;28;20037;-76
2023/09/05 11:13:50;;;;;;;7.97;3.67;;;;;;;28.97;34.90;95507.44;5026471;28;20391;-76
2023/09/05 11:16:15;;;;;;;10.48;4.50;;;;;;;28.79;34.28;95499.16;5015699;28;20033;-77
2023/09/05 11:18:54;;;;;;;7.93;3.78;;;;;;;28.99;35.19;95502.41;5021610;28;20082;-76
2023/09/05 11:21:22;;;;;;;11.40;2.90;;;;;;;28.66;34.88;95485.03;5015469;28;20507;-76
2023/09/05 11:23:54;;;;;;;4.68;2.97;;;;;;;28.73;35.18;95482.34;4998087;28;20045;-76
2023/09/05 11:26:21;;;;;;;8.20;3.45;;;;;;;28.75;33.93;95485.53;5011055;28;20037;-76